createdAt,value
2022-12-09T00:00:40.707Z,34.33
2022-12-09T00:03:21.734Z,32.80
2022-12-09T00:05:50.933Z,32.97
2022-12-09T00:08:18.273Z,30.58
2022-12-09T00:10:45.986Z,31.33
2022-12-09T00:13:13.143Z,34.28
2022-12-09T00:15:42.578Z,34.90
2022-12-09T00:18:10.296Z,33.17
2022-12-09T00:20:37.188Z,32.67
2022-12-09T00:23:04.456Z,37.50
2022-12-09T00:25:31.376Z,36.25
2022-12-09T00:27:58.656Z,32.47
2022-12-09T00:30:26.020Z,21.63
2022-12-09T00:32:53.128Z,25.33
2022-12-09T00:35:20.073Z,24.70
2022-12-09T00:37:47.116Z,34.40
2022-12-09T00:40:14.172Z,39.75
2022-12-09T00:42:41.382Z,36.95
2022-12-09T00:45:08.674Z,37.67
2022-12-09T00:47:35.827Z,41.08
2022-12-09T00:50:03.302Z,40.08
2022-12-09T00:52:30.569Z,35.28
2022-12-09T00:54:57.862Z,41.38
2022-12-09T00:57:25.241Z,35.30
2022-12-09T00:59:52.043Z,36.92
2022-12-09T01:02:19.467Z,36.22
2022-12-09T01:04:46.476Z,39.33
2022-12-09T01:07:13.866Z,44.17
2022-12-09T01:09:40.772Z,39.13
2022-12-09T01:12:07.932Z,35.78
2022-12-09T01:14:34.674Z,37.90
2022-12-09T01:17:01.732Z,40.55
2022-12-09T01:19:28.731Z,37.47
2022-12-09T01:21:56.074Z,39.20
2022-12-09T01:24:23.025Z,37.50
2022-12-09T01:26:50.193Z,32.38
2022-12-09T01:29:16.969Z,38.38
2022-12-09T01:31:44.391Z,41.17
2022-12-09T01:34:11.361Z,39.65
2022-12-09T01:36:39.006Z,37.13
2022-12-09T01:39:06.374Z,39.92
2022-12-09T01:41:34.467Z,41.60
2022-12-09T01:44:20.755Z,44.33
2022-12-09T01:46:48.553Z,35.65
2022-12-09T01:49:48.239Z,42.25
2022-12-09T01:52:23.205Z,40.42
2022-12-09T01:54:52.492Z,38.83
2022-12-09T01:57:19.976Z,38.35
2022-12-09T01:59:46.741Z,38.15
2022-12-09T02:02:17.234Z,36.08
2022-12-09T02:04:47.945Z,42.88
2022-12-09T02:07:15.189Z,42.22
2022-12-09T02:09:43.061Z,37.80
2022-12-09T02:12:17.041Z,40.58
2022-12-09T02:14:50.233Z,47.78
2022-12-09T02:17:27.072Z,43.50
2022-12-09T02:20:09.603Z,36.05
2022-12-09T02:22:44.805Z,39.97
2022-12-09T02:25:33.554Z,37.22
2022-12-09T02:28:49.491Z,40.50
2022-12-09T02:31:52.395Z,43.20
2022-12-09T02:34:26.891Z,36.22
2022-12-09T02:36:59.603Z,42.45
2022-12-09T02:39:42.806Z,39.45
2022-12-09T02:42:15.836Z,41.85
2022-12-09T02:44:45.181Z,47.70
2022-12-09T02:47:16.892Z,40.58
2022-12-09T02:49:48.341Z,43.10
2022-12-09T02:52:15.583Z,40.35
2022-12-09T02:54:43.778Z,39.65
2022-12-09T02:57:16.206Z,45.13
2022-12-09T02:59:43.218Z,44.88
2022-12-09T03:02:31.735Z,40.75
2022-12-09T03:05:01.755Z,43.75
2022-12-09T03:07:44.065Z,43.95
2022-12-09T03:10:17.816Z,35.42
2022-12-09T03:12:56.322Z,42.53
2022-12-09T03:15:28.850Z,37.38
2022-12-09T03:17:58.873Z,39.97
2022-12-09T03:20:29.793Z,44.13
2022-12-09T03:23:00.797Z,44.33
2022-12-09T03:25:40.539Z,37.83
2022-12-09T03:28:14.232Z,43.10
2022-12-09T03:30:45.481Z,38.92
2022-12-09T03:33:15.818Z,41.33
2022-12-09T03:35:46.466Z,47.00
2022-12-09T03:38:18.510Z,45.63
2022-12-09T03:40:50.802Z,38.28
2022-12-09T03:43:26.485Z,42.25
2022-12-09T03:45:55.600Z,45.70
2022-12-09T03:48:24.122Z,47.70
2022-12-09T03:51:08.755Z,39.80
2022-12-09T03:53:43.790Z,38.00
2022-12-09T03:56:18.727Z,38.17
2022-12-09T03:58:48.164Z,37.42
2022-12-09T04:01:16.388Z,42.05
2022-12-09T04:03:50.173Z,36.45
2022-12-09T04:06:17.950Z,36.80
2022-12-09T04:08:44.953Z,39.08
2022-12-09T04:11:12.237Z,40.70
2022-12-09T04:13:39.034Z,43.08
2022-12-09T04:16:06.092Z,43.83
2022-12-09T04:18:33.155Z,46.08
2022-12-09T04:21:00.251Z,49.45
2022-12-09T04:23:27.355Z,42.58
2022-12-09T04:25:54.280Z,44.63
2022-12-09T04:28:21.624Z,44.42
2022-12-09T04:30:49.088Z,49.25
2022-12-09T04:33:16.478Z,43.70
2022-12-09T04:35:43.246Z,42.10
2022-12-09T04:38:10.281Z,46.25
2022-12-09T04:40:38.524Z,47.00
2022-12-09T04:43:06.127Z,45.47
2022-12-09T04:45:33.144Z,55.00
2022-12-09T04:48:00.550Z,39.17
2022-12-09T04:50:27.941Z,44.97
2022-12-09T04:52:55.288Z,51.20
2022-12-09T04:55:22.443Z,45.30
2022-12-09T04:57:49.491Z,41.97
2022-12-09T05:00:17.005Z,44.17
2022-12-09T05:02:44.259Z,43.13
2022-12-09T05:05:12.374Z,45.92
2022-12-09T05:07:39.750Z,44.50
2022-12-09T05:10:08.213Z,44.75
2022-12-09T05:12:40.490Z,47.47
2022-12-09T05:15:07.894Z,50.90
2022-12-09T05:17:35.144Z,48.17
2022-12-09T05:20:02.119Z,45.40
2022-12-09T05:22:29.338Z,45.88
2022-12-09T05:24:56.546Z,50.00
2022-12-09T05:27:23.972Z,48.42
2022-12-09T05:29:50.998Z,40.42
2022-12-09T05:32:18.165Z,42.67
2022-12-09T05:34:45.367Z,43.67
2022-12-09T05:37:15.990Z,42.08
2022-12-09T05:39:43.056Z,44.13
2022-12-09T05:42:10.517Z,42.53
2022-12-09T05:44:37.417Z,48.88
2022-12-09T05:47:05.343Z,48.40
2022-12-09T05:49:32.407Z,47.80
2022-12-09T05:52:00.312Z,42.85
2022-12-09T05:54:27.290Z,46.38
2022-12-09T05:56:57.399Z,44.22
2022-12-09T05:59:24.836Z,40.70
2022-12-09T06:01:52.292Z,42.65
2022-12-09T06:04:19.499Z,45.90
2022-12-09T06:06:47.044Z,41.88
2022-12-09T06:09:14.099Z,40.25
2022-12-09T06:11:41.352Z,52.78
2022-12-09T06:14:10.175Z,46.10
2022-12-09T06:16:37.682Z,50.35
2022-12-09T06:19:05.230Z,37.05
2022-12-09T06:21:32.434Z,51.83
2022-12-09T06:23:59.331Z,48.80
2022-12-09T06:26:30.191Z,43.30
2022-12-09T06:28:58.602Z,49.78
2022-12-09T06:31:27.490Z,48.70
2022-12-09T06:33:57.092Z,46.65
2022-12-09T06:36:27.099Z,49.70
2022-12-09T06:38:55.343Z,51.75
2022-12-09T06:41:23.205Z,46.55
2022-12-09T06:43:50.757Z,42.70
2022-12-09T06:46:21.273Z,44.05
2022-12-09T06:48:48.464Z,46.08
2022-12-09T06:51:17.672Z,44.28
2022-12-09T06:53:45.568Z,47.60
2022-12-09T06:56:13.799Z,50.75
2022-12-09T06:58:42.978Z,44.28
2022-12-09T07:01:13.748Z,48.67
2022-12-09T07:03:43.755Z,46.00
2022-12-09T07:06:31.953Z,47.22
2022-12-09T07:09:02.310Z,52.63
2022-12-09T07:11:29.712Z,57.95
2022-12-09T07:13:57.497Z,52.25
2022-12-09T07:16:25.084Z,50.78
2022-12-09T07:18:52.794Z,47.55
2022-12-09T07:21:21.632Z,53.28
2022-12-09T07:23:48.665Z,48.92
2022-12-09T07:26:17.066Z,52.78
2022-12-09T07:28:47.343Z,49.88
2022-12-09T07:31:25.706Z,48.03
2022-12-09T07:33:56.974Z,43.95
2022-12-09T07:36:29.560Z,50.95
2022-12-09T07:39:02.382Z,49.20
2022-12-09T07:41:29.905Z,44.33
2022-12-09T07:43:57.449Z,46.33
2022-12-09T07:46:27.655Z,50.80
2022-12-09T07:48:56.212Z,48.58
2022-12-09T07:51:25.108Z,44.10
2022-12-09T07:53:52.615Z,38.67
2022-12-09T07:56:20.357Z,44.30
2022-12-09T07:58:48.624Z,46.25
2022-12-09T08:01:18.745Z,48.38
2022-12-09T08:03:47.315Z,49.50
2022-12-09T08:06:22.404Z,49.25
2022-12-09T08:08:50.070Z,44.00
2022-12-09T08:11:23.405Z,42.13
2022-12-09T08:13:51.182Z,43.88
2022-12-09T08:16:20.775Z,43.90
2022-12-09T08:18:48.841Z,40.63
2022-12-09T08:21:28.537Z,40.05
2022-12-09T08:23:58.221Z,51.60
2022-12-09T08:26:27.923Z,44.53
2022-12-09T08:28:55.070Z,36.60
2022-12-09T08:31:25.114Z,35.85
2022-12-09T08:33:54.046Z,41.08
2022-12-09T08:36:24.777Z,50.08
2022-12-09T08:38:52.333Z,40.95
2022-12-09T08:41:35.995Z,42.58
2022-12-09T08:44:11.116Z,40.47
2022-12-09T08:46:40.966Z,39.83
2022-12-09T08:49:09.143Z,44.40
2022-12-09T08:51:37.444Z,36.22
2022-12-09T08:54:05.944Z,34.30
2022-12-09T08:56:33.525Z,43.85
2022-12-09T08:59:00.609Z,46.55
2022-12-09T09:01:32.955Z,44.20
2022-12-09T09:04:16.337Z,37.80
2022-12-09T09:06:45.957Z,41.60
2022-12-09T09:09:14.299Z,37.35
2022-12-09T09:11:43.021Z,38.60
2022-12-09T09:14:12.467Z,43.80
2022-12-09T09:16:42.316Z,35.13
2022-12-09T09:19:15.798Z,40.00
2022-12-09T09:21:43.181Z,39.78
2022-12-09T09:24:12.104Z,37.35
2022-12-09T09:26:42.593Z,34.90
2022-12-09T09:29:14.393Z,40.80
2022-12-09T09:31:42.372Z,40.22
2022-12-09T09:34:11.106Z,33.15
2022-12-09T09:36:41.260Z,32.88
2022-12-09T09:39:08.474Z,44.58
2022-12-09T09:41:48.100Z,38.40
2022-12-09T09:44:36.785Z,33.47
2022-12-09T09:47:37.849Z,31.60
2022-12-09T09:50:33.703Z,36.35
2022-12-09T09:53:10.389Z,39.45
2022-12-09T09:55:44.700Z,36.88
2022-12-09T09:58:20.610Z,34.10
2022-12-09T10:00:50.328Z,35.75
2022-12-09T10:03:31.594Z,44.97
2022-12-09T10:06:12.669Z,39.70
2022-12-09T10:08:56.228Z,33.40
2022-12-09T10:11:37.472Z,33.53
2022-12-09T10:14:17.401Z,42.20
2022-12-09T10:16:51.472Z,34.08
2022-12-09T10:19:30.921Z,39.88
2022-12-09T10:22:12.690Z,34.83
2022-12-09T10:24:51.663Z,33.58
2022-12-09T10:27:27.834Z,30.48
2022-12-09T10:30:14.533Z,33.63
2022-12-09T10:32:42.420Z,26.77
2022-12-09T10:35:16.382Z,29.60
2022-12-09T10:37:44.550Z,29.00
2022-12-09T10:40:12.188Z,31.80
2022-12-09T10:43:10.251Z,32.65
2022-12-09T10:48:51.419Z,33.47
2022-12-09T10:51:27.976Z,26.95
2022-12-09T10:54:05.172Z,26.10
2022-12-09T10:56:35.719Z,26.40
2022-12-09T10:59:10.601Z,31.30
2022-12-09T11:01:59.627Z,30.48
2022-12-09T11:04:28.585Z,28.73
2022-12-09T11:07:05.350Z,28.23
2022-12-09T11:09:35.753Z,24.98
2022-12-09T11:12:06.000Z,24.20
2022-12-09T11:14:39.902Z,25.95
2022-12-09T11:17:21.828Z,26.55
2022-12-09T11:19:54.467Z,26.48
2022-12-09T11:22:36.456Z,23.45
2022-12-09T11:25:13.292Z,24.02
2022-12-09T11:27:43.508Z,25.10
2022-12-09T11:30:31.777Z,23.50
2022-12-09T11:33:04.400Z,23.45
2022-12-09T11:36:02.056Z,23.23
2022-12-09T11:38:41.563Z,24.00
2022-12-09T11:41:11.221Z,27.08
2022-12-09T11:43:55.783Z,23.98
2022-12-09T11:46:28.547Z,25.00
2022-12-09T11:49:14.365Z,30.77
2022-12-09T11:51:59.109Z,26.23
2022-12-09T11:54:36.922Z,23.30
2022-12-09T11:57:06.375Z,24.55
2022-12-09T11:59:40.746Z,26.15
2022-12-09T12:02:34.211Z,25.90
2022-12-09T12:05:07.359Z,22.98
2022-12-09T12:07:49.313Z,19.10
2022-12-09T12:10:23.859Z,20.65
2022-12-09T12:12:50.783Z,23.13
2022-12-09T12:15:38.232Z,22.80
2022-12-09T12:18:13.286Z,26.15
2022-12-09T12:20:58.717Z,20.85
2022-12-09T12:23:34.360Z,20.20
2022-12-09T12:26:11.966Z,21.15
2022-12-09T12:29:00.194Z,26.08
2022-12-09T12:32:26.083Z,20.08
2022-12-09T12:35:06.470Z,23.27
2022-12-09T12:38:01.121Z,25.25
2022-12-09T12:41:06.750Z,27.63
2022-12-09T12:44:11.078Z,26.13
2022-12-09T12:47:05.440Z,25.48
2022-12-09T12:49:35.511Z,23.08
2022-12-09T12:52:54.179Z,27.30
2022-12-09T12:55:28.478Z,29.02
2022-12-09T12:58:20.645Z,24.40
2022-12-09T13:01:30.246Z,24.77
2022-12-09T13:04:07.692Z,28.30
2022-12-09T13:06:40.987Z,30.27
2022-12-09T13:09:36.929Z,30.30
2022-12-09T13:12:11.001Z,26.13
2022-12-09T13:17:23.389Z,29.73
2022-12-09T13:19:57.224Z,24.67
2022-12-09T13:22:35.658Z,27.73
2022-12-09T13:25:31.671Z,32.95
2022-12-09T13:28:02.367Z,29.40
2022-12-09T13:30:42.945Z,31.00
2022-12-09T13:33:21.955Z,30.27
2022-12-09T13:36:05.444Z,34.67
2022-12-09T13:38:36.854Z,31.95
2022-12-09T13:41:31.404Z,28.33
2022-12-09T13:44:09.606Z,28.88
2022-12-09T13:46:36.676Z,32.72
2022-12-09T13:49:21.037Z,35.88
2022-12-09T13:54:22.048Z,34.47
2022-12-09T13:57:06.937Z,24.77
2022-12-09T13:59:43.087Z,32.28
2022-12-09T14:02:13.106Z,34.55
2022-12-09T14:05:07.466Z,36.17
2022-12-09T14:07:51.227Z,31.92
2022-12-09T14:13:31.797Z,31.77
2022-12-09T14:16:14.246Z,32.58
2022-12-09T14:18:42.005Z,28.48
2022-12-09T14:21:18.152Z,25.55
2022-12-09T14:24:11.333Z,25.08
2022-12-09T14:26:42.429Z,28.13
2022-12-09T14:29:09.375Z,28.55
2022-12-09T14:31:45.546Z,29.08
2022-12-09T14:34:27.636Z,25.90
2022-12-09T14:37:22.260Z,23.98
2022-12-09T14:42:35.447Z,22.90
2022-12-09T14:45:36.218Z,24.88
2022-12-09T14:48:10.721Z,26.83
2022-12-09T14:50:38.751Z,25.45
2022-12-09T14:53:19.395Z,31.35
2022-12-09T14:55:46.479Z,27.17
2022-12-09T14:58:20.741Z,26.48
2022-12-09T15:00:57.810Z,27.60
2022-12-09T15:03:36.764Z,30.08
2022-12-09T15:06:18.540Z,26.35
2022-12-09T15:08:46.886Z,26.42
2022-12-09T15:11:34.201Z,31.50
2022-12-09T15:14:25.352Z,31.95
2022-12-09T15:16:52.857Z,26.20
2022-12-09T15:19:58.063Z,32.70
2022-12-09T15:22:21.374Z,30.67
2022-12-09T15:24:50.726Z,34.00
2022-12-09T15:27:20.990Z,33.47
2022-12-09T15:29:48.662Z,31.35
2022-12-09T15:32:28.811Z,28.30
2022-12-09T15:35:12.201Z,47.08
2022-12-09T15:37:39.076Z,37.53
2022-12-09T15:40:11.237Z,31.63
2022-12-09T15:42:42.575Z,31.33
2022-12-09T15:45:26.074Z,28.02
2022-12-09T15:48:31.503Z,29.80
2022-12-09T15:51:07.391Z,26.65
2022-12-09T15:53:41.179Z,32.63
2022-12-09T15:56:15.076Z,27.88
2022-12-09T15:58:51.039Z,29.05
2022-12-09T16:01:38.432Z,22.05
2022-12-09T16:04:08.919Z,27.70
2022-12-09T16:06:37.865Z,30.30
2022-12-09T16:09:15.986Z,32.63
2022-12-09T16:11:48.665Z,28.63
2022-12-09T16:14:17.820Z,25.23
2022-12-09T16:16:57.885Z,23.35
2022-12-09T16:19:30.689Z,29.00
2022-12-09T16:22:21.634Z,28.83
2022-12-09T16:25:14.642Z,29.20
2022-12-09T16:27:50.285Z,24.67
2022-12-09T16:30:23.463Z,26.45
2022-12-09T16:33:04.962Z,23.65
2022-12-09T16:35:42.914Z,25.00
2022-12-09T16:38:09.934Z,30.38
2022-12-09T16:40:45.739Z,26.63
2022-12-09T16:43:15.972Z,26.35
2022-12-09T16:45:46.956Z,24.73
2022-12-09T16:48:17.021Z,26.60
2022-12-09T16:50:48.640Z,23.48
2022-12-09T16:53:22.309Z,23.30
2022-12-09T16:55:54.626Z,28.48
2022-12-09T16:58:22.333Z,26.85
2022-12-09T17:00:49.706Z,23.77
2022-12-09T17:03:30.408Z,30.00
2022-12-09T17:05:57.251Z,26.33
2022-12-09T17:08:24.522Z,28.27
2022-12-09T17:10:51.331Z,29.40
2022-12-09T17:13:18.469Z,29.70
2022-12-09T17:15:45.275Z,34.25
2022-12-09T17:18:12.364Z,29.48
2022-12-09T17:20:39.187Z,38.65
2022-12-09T17:23:06.225Z,30.50
2022-12-09T17:25:33.390Z,32.28
2022-12-09T17:28:03.343Z,35.60
2022-12-09T17:30:30.178Z,30.90
2022-12-09T17:32:59.589Z,29.23
2022-12-09T17:35:27.152Z,28.85
2022-12-09T17:37:54.238Z,27.00
2022-12-09T17:40:21.070Z,30.90
2022-12-09T17:42:48.145Z,30.08
2022-12-09T17:45:14.899Z,27.80
2022-12-09T17:47:41.917Z,26.50
2022-12-09T17:50:09.539Z,31.75
2022-12-09T17:52:36.879Z,28.30
2022-12-09T17:55:03.905Z,28.02
2022-12-09T17:57:30.957Z,30.70
2022-12-09T17:59:57.706Z,27.00
2022-12-09T18:02:24.793Z,29.33
2022-12-09T18:04:52.055Z,27.77
2022-12-09T18:07:19.139Z,30.15
2022-12-09T18:09:48.662Z,28.40
2022-12-09T18:12:19.979Z,33.55
2022-12-09T18:14:46.722Z,34.53
2022-12-09T18:17:13.800Z,30.33
2022-12-09T18:19:40.726Z,30.55
2022-12-09T18:22:08.414Z,26.88
2022-12-09T18:24:35.235Z,24.95
2022-12-09T18:27:02.294Z,23.63
2022-12-09T18:29:29.572Z,23.13
2022-12-09T18:31:57.064Z,26.05
2022-12-09T18:34:25.387Z,24.33
2022-12-09T18:36:52.518Z,26.20
2022-12-09T18:39:19.361Z,26.20
2022-12-09T18:41:46.617Z,22.98
2022-12-09T18:44:15.340Z,27.98
2022-12-09T18:46:48.756Z,27.98
2022-12-09T18:49:18.768Z,23.60
2022-12-09T18:51:47.286Z,22.23
2022-12-09T18:54:28.209Z,24.10
2022-12-09T18:56:56.466Z,22.02
2022-12-09T18:59:25.106Z,25.00
2022-12-09T19:01:52.342Z,30.13
2022-12-09T19:04:24.848Z,26.88
2022-12-09T19:06:54.785Z,24.13
2022-12-09T19:09:24.375Z,26.27
2022-12-09T19:11:52.686Z,24.15
2022-12-09T19:14:21.893Z,22.33
2022-12-09T19:16:49.579Z,22.77
2022-12-09T19:19:22.018Z,23.65
2022-12-09T19:21:49.438Z,21.27
2022-12-09T19:24:27.651Z,25.27
2022-12-09T19:26:57.764Z,23.33
2022-12-09T19:29:25.339Z,25.80
2022-12-09T19:31:53.779Z,23.58
2022-12-09T19:34:24.596Z,25.77
2022-12-09T19:36:53.330Z,19.70
2022-12-09T19:39:23.411Z,23.40
2022-12-09T19:41:51.407Z,23.02
2022-12-09T19:44:37.013Z,20.40
2022-12-09T19:47:04.963Z,19.20
2022-12-09T19:49:31.719Z,22.73
2022-12-09T19:52:00.004Z,16.27
2022-12-09T19:54:29.070Z,19.63
2022-12-09T19:56:56.783Z,19.30
2022-12-09T19:59:23.565Z,16.42
2022-12-09T20:01:51.518Z,13.75
2022-12-09T20:07:08.814Z,18.25
2022-12-09T20:09:37.275Z,13.32
2022-12-09T20:12:04.747Z,17.00
2022-12-09T20:14:31.626Z,16.40
2022-12-09T20:16:58.895Z,17.77
2022-12-09T20:19:25.711Z,15.50
2022-12-09T20:21:52.762Z,15.15
2022-12-09T20:24:19.544Z,16.15
2022-12-09T20:26:46.594Z,16.50
2022-12-09T20:29:13.567Z,14.00
2022-12-09T20:31:41.959Z,17.95
2022-12-09T20:34:13.084Z,20.77
2022-12-09T20:36:41.765Z,17.00
2022-12-09T20:39:14.914Z,17.23
2022-12-09T20:41:42.794Z,16.70
2022-12-09T20:44:11.757Z,21.05
2022-12-09T20:46:40.218Z,19.48
2022-12-09T20:49:07.593Z,22.25
2022-12-09T20:51:37.817Z,23.85
2022-12-09T20:54:05.515Z,22.73
2022-12-09T20:56:33.230Z,24.15
2022-12-09T20:59:00.556Z,23.48
2022-12-09T21:01:33.241Z,23.20
2022-12-09T21:04:01.192Z,20.58
2022-12-09T21:06:30.980Z,23.52
2022-12-09T21:09:07.349Z,16.50
2022-12-09T21:11:35.206Z,16.00
2022-12-09T21:14:04.024Z,17.73
2022-12-09T21:16:34.073Z,14.70
2022-12-09T21:19:03.746Z,17.02
2022-12-09T21:21:33.910Z,14.18
2022-12-09T21:24:04.324Z,13.90
2022-12-09T21:26:31.438Z,13.00
2022-12-09T21:29:00.303Z,11.15
2022-12-09T21:31:31.093Z,12.18
2022-12-09T21:34:01.653Z,13.30
2022-12-09T21:36:31.730Z,14.27
2022-12-09T21:38:58.919Z,16.08
2022-12-09T21:41:29.346Z,13.98
2022-12-09T21:43:56.174Z,10.95
2022-12-09T21:46:26.266Z,12.02
2022-12-09T21:48:58.590Z,12.90
2022-12-09T21:51:30.894Z,14.55
2022-12-09T21:53:57.664Z,12.55
2022-12-09T21:56:26.740Z,13.63
2022-12-09T21:58:55.694Z,14.27
2022-12-09T22:01:28.744Z,12.25
2022-12-09T22:03:57.318Z,11.73
2022-12-09T22:06:24.533Z,13.63
2022-12-09T22:08:51.606Z,13.65
2022-12-09T22:11:22.107Z,11.52
2022-12-09T22:13:48.866Z,12.70
2022-12-09T22:16:23.771Z,11.13
2022-12-09T22:18:53.848Z,14.95
2022-12-09T22:21:25.240Z,11.13
2022-12-09T22:23:54.580Z,12.35
2022-12-09T22:26:22.770Z,15.23
2022-12-09T22:28:50.114Z,14.05
2022-12-09T22:31:22.922Z,21.05
2022-12-09T22:33:51.374Z,18.60
2022-12-09T22:36:19.478Z,14.68
2022-12-09T22:38:47.091Z,16.05
2022-12-09T22:41:16.691Z,16.95
2022-12-09T22:43:43.626Z,12.80
2022-12-09T22:46:14.887Z,15.30
2022-12-09T22:48:42.506Z,15.70
2022-12-09T22:51:12.709Z,16.73
2022-12-09T22:53:40.298Z,20.02
2022-12-09T22:56:08.434Z,24.45
2022-12-09T22:58:35.532Z,24.00
2022-12-09T23:01:02.761Z,20.13
2022-12-09T23:03:29.538Z,25.27
2022-12-09T23:05:56.639Z,21.30
2022-12-09T23:08:23.435Z,19.23
2022-12-09T23:10:50.501Z,19.77
2022-12-09T23:13:18.079Z,16.05
2022-12-09T23:15:45.162Z,16.55
2022-12-09T23:18:11.997Z,19.83
2022-12-09T23:20:39.071Z,15.73
2022-12-09T23:23:05.900Z,15.27
2022-12-09T23:25:33.462Z,16.33
2022-12-09T23:28:00.226Z,16.67
2022-12-09T23:30:27.256Z,11.38
2022-12-09T23:32:54.008Z,12.85
2022-12-09T23:35:21.019Z,11.57
2022-12-09T23:37:47.763Z,11.77
2022-12-09T23:40:14.839Z,12.07
2022-12-09T23:42:41.554Z,12.85
2022-12-09T23:45:08.878Z,12.55
2022-12-09T23:47:35.653Z,14.43
2022-12-09T23:50:02.709Z,12.05
2022-12-09T23:52:30.567Z,12.27
2022-12-09T23:55:03.940Z,12.20
2022-12-09T23:57:31.209Z,12.93
